sensor_id;sensor_type;location;lat;lon;timestamp;pressure;altitude;pressure_sealevel;temperature;humidity
70302;BME280;57706;56.326;43.882;2023-01-29T00:02:08;101104.22;;;-2.69;69.94
70302;BME280;57706;56.326;43.882;2023-01-29T00:04:34;101114.53;;;-2.46;69.17
70302;BME280;57706;56.326;43.882;2023-01-29T00:07:00;101108.81;;;-2.10;67.91
70302;BME280;57706;56.326;43.882;2023-01-29T00:09:45;101098.09;;;-2.22;68.11
70302;BME280;57706;56.326;43.882;2023-01-29T00:12:10;101097.78;;;-2.57;69.27
70302;BME280;57706;56.326;43.882;2023-01-29T00:14:36;101082.91;;;-2.72;70.29
70302;BME280;57706;56.326;43.882;2023-01-29T00:17:02;101079.94;;;-2.61;70.27
70302;BME280;57706;56.326;43.882;2023-01-29T00:19:28;101072.84;;;-2.79;70.72
70302;BME280;57706;56.326;43.882;2023-01-29T00:21:53;101070.22;;;-2.99;71.93
70302;BME280;57706;56.326;43.882;2023-01-29T00:24:19;101070.22;;;-2.77;71.64
70302;BME280;57706;56.326;43.882;2023-01-29T00:26:45;101065.34;;;-2.61;71.21
70302;BME280;57706;56.326;43.882;2023-01-29T00:29:11;101071.28;;;-2.38;70.33
70302;BME280;57706;56.326;43.882;2023-01-29T00:31:37;101071.31;;;-2.17;70.12
70302;BME280;57706;56.326;43.882;2023-01-29T00:34:03;101062.59;;;-2.56;71.39
70302;BME280;57706;56.326;43.882;2023-01-29T00:36:29;101062.66;;;-2.37;71.21
70302;BME280;57706;56.326;43.882;2023-01-29T00:38:56;101056.28;;;-2.71;72.67
70302;BME280;57706;56.326;43.882;2023-01-29T00:41:29;101058.16;;;-2.53;71.47
70302;BME280;57706;56.326;43.882;2023-01-29T00:44:32;101053.91;;;-2.33;71.63
70302;BME280;57706;56.326;43.882;2023-01-29T00:47:16;101050.84;;;-2.64;73.17
70302;BME280;57706;56.326;43.882;2023-01-29T00:50:03;101055.47;;;-2.29;72.29
70302;BME280;57706;56.326;43.882;2023-01-29T00:52:30;101045.28;;;-2.32;72.68
70302;BME280;57706;56.326;43.882;2023-01-29T00:54:57;101053.00;;;-2.53;73.60
70302;BME280;57706;56.326;43.882;2023-01-29T00:57:25;101048.19;;;-2.62;75.04
70302;BME280;57706;56.326;43.882;2023-01-29T00:59:52;101040.19;;;-2.54;75.12
70302;BME280;57706;56.326;43.882;2023-01-29T01:02:36;101032.84;;;-2.86;76.06
70302;BME280;57706;56.326;43.882;2023-01-29T01:05:20;101029.66;;;-2.93;77.09
70302;BME280;57706;56.326;43.882;2023-01-29T01:07:51;101030.00;;;-2.80;76.79
70302;BME280;57706;56.326;43.882;2023-01-29T01:10:24;101024.16;;;-2.61;76.44
70302;BME280;57706;56.326;43.882;2023-01-29T01:13:09;101024.16;;;-2.83;77.05
70302;BME280;57706;56.326;43.882;2023-01-29T01:15:38;101016.59;;;-2.88;77.66
70302;BME280;57706;56.326;43.882;2023-01-29T01:18:05;101009.97;;;-2.49;76.60
70302;BME280;57706;56.326;43.882;2023-01-29T01:20:34;101019.13;;;-2.64;76.82
70302;BME280;57706;56.326;43.882;2023-01-29T01:23:00;101021.22;;;-2.52;76.67
70302;BME280;57706;56.326;43.882;2023-01-29T01:25:26;101017.50;;;-2.24;75.67
70302;BME280;57706;56.326;43.882;2023-01-29T01:27:56;101021.09;;;-2.28;75.94
70302;BME280;57706;56.326;43.882;2023-01-29T01:30:23;101015.94;;;-2.07;74.95
70302;BME280;57706;56.326;43.882;2023-01-29T01:33:08;101013.38;;;-2.07;75.33
70302;BME280;57706;56.326;43.882;2023-01-29T01:35:33;101020.31;;;-2.09;75.96
70302;BME280;57706;56.326;43.882;2023-01-29T01:37:59;101015.03;;;-2.06;75.72
70302;BME280;57706;56.326;43.882;2023-01-29T01:40:25;101003.78;;;-2.24;76.47
70302;BME280;57706;56.326;43.882;2023-01-29T01:42:54;101006.38;;;-1.84;75.42
70302;BME280;57706;56.326;43.882;2023-01-29T01:45:31;101002.19;;;-1.87;75.40
70302;BME280;57706;56.326;43.882;2023-01-29T01:50:51;100995.06;;;-2.01;76.12
70302;BME280;57706;56.326;43.882;2023-01-29T01:53:35;100994.03;;;-1.97;76.25
70302;BME280;57706;56.326;43.882;2023-01-29T01:56:04;100995.69;;;-1.96;77.02
70302;BME280;57706;56.326;43.882;2023-01-29T01:58:52;100997.00;;;-1.85;76.47
70302;BME280;57706;56.326;43.882;2023-01-29T02:01:21;100993.50;;;-1.84;76.63
70302;BME280;57706;56.326;43.882;2023-01-29T02:04:02;100990.16;;;-1.86;77.10
70302;BME280;57706;56.326;43.882;2023-01-29T02:06:48;100995.59;;;-1.92;78.09
70302;BME280;57706;56.326;43.882;2023-01-29T02:09:39;100985.53;;;-1.99;78.07
70302;BME280;57706;56.326;43.882;2023-01-29T02:12:10;100993.00;;;-1.92;78.66
70302;BME280;57706;56.326;43.882;2023-01-29T02:14:38;100995.44;;;-1.89;78.86
70302;BME280;57706;56.326;43.882;2023-01-29T02:17:25;100981.66;;;-1.88;79.03
70302;BME280;57706;56.326;43.882;2023-01-29T02:34:21;100968.69;;;-1.87;80.69
70302;BME280;57706;56.326;43.882;2023-01-29T02:37:08;100960.16;;;-2.08;81.34
70302;BME280;57706;56.326;43.882;2023-01-29T02:39:56;100959.94;;;-2.43;83.42
70302;BME280;57706;56.326;43.882;2023-01-29T02:42:50;100955.03;;;-2.29;81.95
70302;BME280;57706;56.326;43.882;2023-01-29T02:45:45;100951.13;;;-1.98;81.16
70302;BME280;57706;56.326;43.882;2023-01-29T02:48:18;100952.66;;;-2.13;81.25
70302;BME280;57706;56.326;43.882;2023-01-29T02:51:07;100956.84;;;-2.31;82.14
70302;BME280;57706;56.326;43.882;2023-01-29T02:53:43;100947.53;;;-1.94;80.50
70302;BME280;57706;56.326;43.882;2023-01-29T02:56:17;100939.00;;;-1.96;80.50
70302;BME280;57706;56.326;43.882;2023-01-29T02:58:49;100943.16;;;-2.12;80.66
70302;BME280;57706;56.326;43.882;2023-01-29T03:01:42;100935.47;;;-2.33;82.08
70302;BME280;57706;56.326;43.882;2023-01-29T03:04:18;100946.53;;;-2.10;81.68
70302;BME280;57706;56.326;43.882;2023-01-29T03:06:50;100928.28;;;-2.05;80.84
70302;BME280;57706;56.326;43.882;2023-01-29T03:11:52;100932.84;;;-2.12;81.19
70302;BME280;57706;56.326;43.882;2023-01-29T03:14:35;100927.94;;;-1.98;80.93
70302;BME280;57706;56.326;43.882;2023-01-29T03:17:22;100932.75;;;-2.09;80.85
70302;BME280;57706;56.326;43.882;2023-01-29T03:19:50;100924.19;;;-1.90;80.05
70302;BME280;57706;56.326;43.882;2023-01-29T03:22:20;100933.59;;;-1.89;79.83
70302;BME280;57706;56.326;43.882;2023-01-29T03:24:56;100923.72;;;-1.80;79.47
70302;BME280;57706;56.326;43.882;2023-01-29T03:27:45;100924.47;;;-1.97;80.27
70302;BME280;57706;56.326;43.882;2023-01-29T03:30:43;100919.41;;;-1.98;80.30
70302;BME280;57706;56.326;43.882;2023-01-29T03:33:46;100914.94;;;-1.95;80.53
70302;BME280;57706;56.326;43.882;2023-01-29T03:36:23;100914.72;;;-2.30;81.18
70302;BME280;57706;56.326;43.882;2023-01-29T03:39:05;100905.81;;;-2.02;80.36
70302;BME280;57706;56.326;43.882;2023-01-29T03:41:35;100903.66;;;-2.11;81.04
70302;BME280;57706;56.326;43.882;2023-01-29T03:44:16;100896.25;;;-2.00;80.47
70302;BME280;57706;56.326;43.882;2023-01-29T03:46:53;100901.38;;;-2.19;81.05
70302;BME280;57706;56.326;43.882;2023-01-29T03:54:59;100905.72;;;-2.19;80.12
70302;BME280;57706;56.326;43.882;2023-01-29T03:57:54;100893.47;;;-2.14;80.76
70302;BME280;57706;56.326;43.882;2023-01-29T04:00:57;100892.94;;;-2.02;79.91
70302;BME280;57706;56.326;43.882;2023-01-29T04:03:42;100896.53;;;-2.06;80.68
70302;BME280;57706;56.326;43.882;2023-01-29T04:06:23;100888.88;;;-1.88;78.94
70302;BME280;57706;56.326;43.882;2023-01-29T04:09:19;100886.34;;;-2.28;80.40
70302;BME280;57706;56.326;43.882;2023-01-29T04:11:53;100880.06;;;-1.83;78.99
70302;BME280;57706;56.326;43.882;2023-01-29T04:14:21;100887.19;;;-2.09;79.38
70302;BME280;57706;56.326;43.882;2023-01-29T04:16:51;100876.13;;;-2.11;79.29
70302;BME280;57706;56.326;43.882;2023-01-29T04:19:24;100883.53;;;-2.43;80.79
70302;BME280;57706;56.326;43.882;2023-01-29T04:21:54;100884.56;;;-2.07;78.98
70302;BME280;57706;56.326;43.882;2023-01-29T04:24:22;100871.97;;;-1.94;77.81
70302;BME280;57706;56.326;43.882;2023-01-29T04:26:55;100869.16;;;-2.09;77.88
70302;BME280;57706;56.326;43.882;2023-01-29T04:29:26;100873.81;;;-2.36;78.73
70302;BME280;57706;56.326;43.882;2023-01-29T04:34:27;100863.63;;;-2.39;78.32
70302;BME280;57706;56.326;43.882;2023-01-29T04:37:05;100853.78;;;-2.29;77.40
70302;BME280;57706;56.326;43.882;2023-01-29T04:39:53;100843.84;;;-2.58;78.44
70302;BME280;57706;56.326;43.882;2023-01-29T04:42:28;100847.22;;;-2.37;77.36
70302;BME280;57706;56.326;43.882;2023-01-29T04:47:35;100833.28;;;-2.72;78.50
70302;BME280;57706;56.326;43.882;2023-01-29T04:50:37;100845.84;;;-2.65;78.07
70302;BME280;57706;56.326;43.882;2023-01-29T04:53:21;100854.00;;;-2.55;77.19
70302;BME280;57706;56.326;43.882;2023-01-29T04:55:58;100838.44;;;-2.52;76.76
70302;BME280;57706;56.326;43.882;2023-01-29T04:58:42;100855.03;;;-2.80;78.41
70302;BME280;57706;56.326;43.882;2023-01-29T05:01:12;100841.22;;;-2.56;76.83
70302;BME280;57706;56.326;43.882;2023-01-29T05:03:41;100847.66;;;-2.27;75.84
70302;BME280;57706;56.326;43.882;2023-01-29T05:06:10;100837.13;;;-2.41;75.45
70302;BME280;57706;56.326;43.882;2023-01-29T05:08:37;100838.13;;;-2.65;76.49
70302;BME280;57706;56.326;43.882;2023-01-29T05:11:23;100840.56;;;-2.61;76.59
70302;BME280;57706;56.326;43.882;2023-01-29T05:13:49;100838.00;;;-2.61;75.75
70302;BME280;57706;56.326;43.882;2023-01-29T05:16:25;100841.91;;;-2.53;75.80
70302;BME280;57706;56.326;43.882;2023-01-29T05:18:52;100842.72;;;-2.31;74.74
70302;BME280;57706;56.326;43.882;2023-01-29T05:21:18;100844.25;;;-2.67;75.47
70302;BME280;57706;56.326;43.882;2023-01-29T05:23:45;100851.06;;;-2.66;75.75
70302;BME280;57706;56.326;43.882;2023-01-29T05:26:28;100840.13;;;-2.71;75.94
70302;BME280;57706;56.326;43.882;2023-01-29T05:29:13;100834.41;;;-2.57;75.06
70302;BME280;57706;56.326;43.882;2023-01-29T05:31:39;100839.47;;;-2.56;75.01
70302;BME280;57706;56.326;43.882;2023-01-29T05:34:04;100833.28;;;-2.52;74.81
70302;BME280;57706;56.326;43.882;2023-01-29T05:36:49;100844.19;;;-2.86;76.07
70302;BME280;57706;56.326;43.882;2023-01-29T05:39:15;100844.53;;;-2.54;75.11
70302;BME280;57706;56.326;43.882;2023-01-29T05:41:42;100833.28;;;-2.52;74.55
70302;BME280;57706;56.326;43.882;2023-01-29T05:44:11;100837.34;;;-2.67;74.90
70302;BME280;57706;56.326;43.882;2023-01-29T05:46:37;100825.56;;;-2.72;75.25
70302;BME280;57706;56.326;43.882;2023-01-29T05:49:04;100820.69;;;-2.79;75.79
70302;BME280;57706;56.326;43.882;2023-01-29T05:51:30;100814.78;;;-2.60;75.41
70302;BME280;57706;56.326;43.882;2023-01-29T05:53:56;100812.72;;;-2.32;73.87
70302;BME280;57706;56.326;43.882;2023-01-29T05:56:22;100814.38;;;-2.31;73.40
70302;BME280;57706;56.326;43.882;2023-01-29T05:59:08;100822.03;;;-2.30;72.82
70302;BME280;57706;56.326;43.882;2023-01-29T06:01:34;100822.09;;;-2.71;74.33
70302;BME280;57706;56.326;43.882;2023-01-29T06:03:59;100816.66;;;-2.25;72.89
70302;BME280;57706;56.326;43.882;2023-01-29T06:06:25;100817.91;;;-2.53;73.63
70302;BME280;57706;56.326;43.882;2023-01-29T06:08:51;100820.47;;;-2.53;73.96
70302;BME280;57706;56.326;43.882;2023-01-29T06:11:17;100820.03;;;-2.63;74.01
70302;BME280;57706;56.326;43.882;2023-01-29T06:13:43;100819.03;;;-2.40;73.64
70302;BME280;57706;56.326;43.882;2023-01-29T06:16:11;100815.34;;;-2.34;73.10
70302;BME280;57706;56.326;43.882;2023-01-29T06:18:38;100811.59;;;-2.27;72.39
70302;BME280;57706;56.326;43.882;2023-01-29T06:21:22;100802.41;;;-2.52;73.64
70302;BME280;57706;56.326;43.882;2023-01-29T06:23:51;100801.81;;;-2.58;73.14
70302;BME280;57706;56.326;43.882;2023-01-29T06:26:17;100795.41;;;-2.69;74.11
70302;BME280;57706;56.326;43.882;2023-01-29T06:28:43;100801.44;;;-2.49;73.10
70302;BME280;57706;56.326;43.882;2023-01-29T06:31:10;100800.94;;;-2.57;73.06
70302;BME280;57706;56.326;43.882;2023-01-29T06:33:36;100794.59;;;-2.69;74.08
70302;BME280;57706;56.326;43.882;2023-01-29T06:36:20;100788.06;;;-2.38;72.80
70302;BME280;57706;56.326;43.882;2023-01-29T06:38:46;100786.34;;;-2.38;72.61
70302;BME280;57706;56.326;43.882;2023-01-29T06:41:15;100785.78;;;-2.44;72.17
70302;BME280;57706;56.326;43.882;2023-01-29T06:43:45;100777.38;;;-3.09;73.78
70302;BME280;57706;56.326;43.882;2023-01-29T06:46:12;100792.53;;;-2.82;74.68
70302;BME280;57706;56.326;43.882;2023-01-29T06:48:38;100777.81;;;-2.59;72.79
70302;BME280;57706;56.326;43.882;2023-01-29T06:51:05;100788.22;;;-2.41;71.96
70302;BME280;57706;56.326;43.882;2023-01-29T06:53:33;100788.34;;;-2.44;71.75
70302;BME280;57706;56.326;43.882;2023-01-29T06:55:59;100783.41;;;-2.89;71.78
70302;BME280;57706;56.326;43.882;2023-01-29T06:58:25;100774.00;;;-2.69;71.69
70302;BME280;57706;56.326;43.882;2023-01-29T07:00:52;100778.44;;;-2.54;71.35
70302;BME280;57706;56.326;43.882;2023-01-29T07:03:18;100786.66;;;-2.45;70.80
70302;BME280;57706;56.326;43.882;2023-01-29T07:05:49;100788.22;;;-2.41;69.77
70302;BME280;57706;56.326;43.882;2023-01-29T07:08:16;100779.44;;;-2.37;69.65
70302;BME280;57706;56.326;43.882;2023-01-29T07:10:42;100780.97;;;-2.52;70.09
70302;BME280;57706;56.326;43.882;2023-01-29T07:13:08;100786.75;;;-2.28;69.89
70302;BME280;57706;56.326;43.882;2023-01-29T07:15:34;100786.47;;;-2.22;68.97
70302;BME280;57706;56.326;43.882;2023-01-29T07:18:02;100777.97;;;-2.43;69.53
70302;BME280;57706;56.326;43.882;2023-01-29T07:20:38;100786.72;;;-2.66;69.82
70302;BME280;57706;56.326;43.882;2023-01-29T07:23:04;100777.06;;;-2.42;69.16
70302;BME280;57706;56.326;43.882;2023-01-29T07:25:30;100774.28;;;-2.56;69.88
70302;BME280;57706;56.326;43.882;2023-01-29T07:27:59;100772.50;;;-2.35;69.07
70302;BME280;57706;56.326;43.882;2023-01-29T07:30:25;100777.19;;;-2.64;70.19
70302;BME280;57706;56.326;43.882;2023-01-29T07:32:51;100776.47;;;-2.68;70.77
70302;BME280;57706;56.326;43.882;2023-01-29T07:35:40;100777.84;;;-2.80;70.97
70302;BME280;57706;56.326;43.882;2023-01-29T07:38:07;100781.22;;;-2.78;70.70
70302;BME280;57706;56.326;43.882;2023-01-29T07:40:34;100778.94;;;-2.45;69.86
70302;BME280;57706;56.326;43.882;2023-01-29T07:43:01;100773.03;;;-2.47;69.79
70302;BME280;57706;56.326;43.882;2023-01-29T07:45:28;100770.47;;;-2.87;70.67
70302;BME280;57706;56.326;43.882;2023-01-29T07:47:55;100775.19;;;-2.38;69.35
70302;BME280;57706;56.326;43.882;2023-01-29T07:50:22;100770.19;;;-2.41;68.98
70302;BME280;57706;56.326;43.882;2023-01-29T07:52:48;100763.84;;;-2.53;69.40
70302;BME280;57706;56.326;43.882;2023-01-29T07:55:15;100771.53;;;-2.32;68.69
70302;BME280;57706;56.326;43.882;2023-01-29T07:57:41;100756.81;;;-2.50;69.07
70302;BME280;57706;56.326;43.882;2023-01-29T08:00:08;100761.75;;;-2.64;70.51
70302;BME280;57706;56.326;43.882;2023-01-29T08:02:38;100752.91;;;-2.58;70.17
70302;BME280;57706;56.326;43.882;2023-01-29T08:05:04;100753.56;;;-2.34;69.87
70302;BME280;57706;56.326;43.882;2023-01-29T08:07:30;100753.13;;;-2.63;70.43
70302;BME280;57706;56.326;43.882;2023-01-29T08:09:56;100766.47;;;-2.55;69.97
70302;BME280;57706;56.326;43.882;2023-01-29T08:12:40;100761.50;;;-2.39;68.59
70302;BME280;57706;56.326;43.882;2023-01-29T08:15:07;100750.63;;;-2.45;69.08
70302;BME280;57706;56.326;43.882;2023-01-29T08:17:32;100740.41;;;-2.47;68.47
70302;BME280;57706;56.326;43.882;2023-01-29T08:19:59;100736.59;;;-2.97;70.01
70302;BME280;57706;56.326;43.882;2023-01-29T08:22:25;100739.59;;;-2.87;69.08
70302;BME280;57706;56.326;43.882;2023-01-29T08:24:50;100723.34;;;-2.69;68.74
70302;BME280;57706;56.326;43.882;2023-01-29T08:27:16;100730.75;;;-2.61;67.63
70302;BME280;57706;56.326;43.882;2023-01-29T08:29:42;100735.16;;;-2.45;66.71
70302;BME280;57706;56.326;43.882;2023-01-29T08:32:09;100734.63;;;-2.52;66.77
70302;BME280;57706;56.326;43.882;2023-01-29T08:34:35;100730.84;;;-2.64;66.33
70302;BME280;57706;56.326;43.882;2023-01-29T08:37:01;100740.88;;;-2.58;65.78
70302;BME280;57706;56.326;43.882;2023-01-29T08:39:27;100729.13;;;-3.04;66.59
70302;BME280;57706;56.326;43.882;2023-01-29T08:41:53;100726.97;;;-2.73;66.12
70302;BME280;57706;56.326;43.882;2023-01-29T08:44:18;100710.84;;;-2.77;66.38
70302;BME280;57706;56.326;43.882;2023-01-29T08:46:44;100714.56;;;-2.84;65.82
70302;BME280;57706;56.326;43.882;2023-01-29T08:49:10;100721.41;;;-2.64;64.83
70302;BME280;57706;56.326;43.882;2023-01-29T08:51:54;100711.28;;;-3.07;66.19
70302;BME280;57706;56.326;43.882;2023-01-29T08:54:22;100707.78;;;-3.06;66.15
70302;BME280;57706;56.326;43.882;2023-01-29T08:56:48;100704.69;;;-2.93;65.99
70302;BME280;57706;56.326;43.882;2023-01-29T08:59:33;100721.75;;;-2.71;64.99
70302;BME280;57706;56.326;43.882;2023-01-29T09:01:59;100702.47;;;-2.82;65.82
70302;BME280;57706;56.326;43.882;2023-01-29T09:04:24;100706.66;;;-2.60;64.86
70302;BME280;57706;56.326;43.882;2023-01-29T09:06:51;100705.38;;;-2.70;64.96
70302;BME280;57706;56.326;43.882;2023-01-29T09:09:16;100706.25;;;-2.51;64.37
70302;BME280;57706;56.326;43.882;2023-01-29T09:11:42;100704.84;;;-2.77;65.29
70302;BME280;57706;56.326;43.882;2023-01-29T09:14:09;100692.63;;;-2.53;64.89
70302;BME280;57706;56.326;43.882;2023-01-29T09:16:37;100691.34;;;-2.63;65.53
70302;BME280;57706;56.326;43.882;2023-01-29T09:19:02;100683.28;;;-2.74;65.52
70302;BME280;57706;56.326;43.882;2023-01-29T09:21:28;100688.94;;;-2.66;65.51
70302;BME280;57706;56.326;43.882;2023-01-29T09:23:54;100679.16;;;-2.40;64.45
70302;BME280;57706;56.326;43.882;2023-01-29T09:26:20;100678.41;;;-2.42;64.73
70302;BME280;57706;56.326;43.882;2023-01-29T09:28:45;100677.19;;;-2.53;64.38
70302;BME280;57706;56.326;43.882;2023-01-29T09:31:11;100687.59;;;-2.56;65.13
70302;BME280;57706;56.326;43.882;2023-01-29T09:33:37;100673.25;;;-2.42;65.11
70302;BME280;57706;56.326;43.882;2023-01-29T09:36:03;100682.16;;;-2.50;64.39
70302;BME280;57706;56.326;43.882;2023-01-29T09:38:29;100673.91;;;-2.75;65.30
70302;BME280;57706;56.326;43.882;2023-01-29T09:43:45;100666.03;;;-2.72;64.49
70302;BME280;57706;56.326;43.882;2023-01-29T09:46:20;100666.88;;;-2.91;66.11
70302;BME280;57706;56.326;43.882;2023-01-29T09:51:43;100664.38;;;-2.73;65.69
70302;BME280;57706;56.326;43.882;2023-01-29T09:57:23;100650.59;;;-2.72;66.19
70302;BME280;57706;56.326;43.882;2023-01-29T09:59:50;100650.31;;;-3.05;66.23
70302;BME280;57706;56.326;43.882;2023-01-29T10:08:04;100633.91;;;-3.02;66.44
70302;BME280;57706;56.326;43.882;2023-01-29T10:23:33;100609.91;;;-2.64;64.84
70302;BME280;57706;56.326;43.882;2023-01-29T10:26:01;100621.97;;;-2.84;65.54
70302;BME280;57706;56.326;43.882;2023-01-29T10:28:33;100609.69;;;-2.79;65.21
70302;BME280;57706;56.326;43.882;2023-01-29T10:31:26;100605.28;;;-3.13;65.66
70302;BME280;57706;56.326;43.882;2023-01-29T10:36:41;100600.13;;;-2.94;65.21
70302;BME280;57706;56.326;43.882;2023-01-29T10:39:25;100597.03;;;-3.41;66.53
70302;BME280;57706;56.326;43.882;2023-01-29T10:47:29;100593.56;;;-3.40;66.83
70302;BME280;57706;56.326;43.882;2023-01-29T10:53:04;100587.06;;;-3.09;66.02
70302;BME280;57706;56.326;43.882;2023-01-29T10:59:38;100583.78;;;-3.32;66.63
70302;BME280;57706;56.326;43.882;2023-01-29T11:02:19;100585.34;;;-3.48;67.42
70302;BME280;57706;56.326;43.882;2023-01-29T11:04:48;100577.03;;;-3.15;66.25
70302;BME280;57706;56.326;43.882;2023-01-29T11:07:17;100587.50;;;-3.39;66.58
70302;BME280;57706;56.326;43.882;2023-01-29T11:09:56;100585.59;;;-3.34;66.75
70302;BME280;57706;56.326;43.882;2023-01-29T11:12:28;100594.88;;;-3.71;67.50
70302;BME280;57706;56.326;43.882;2023-01-29T11:15:27;100592.66;;;-3.39;66.87
70302;BME280;57706;56.326;43.882;2023-01-29T11:18:21;100586.47;;;-3.95;68.98
70302;BME280;57706;56.326;43.882;2023-01-29T11:21:00;100577.41;;;-3.63;67.77
70302;BME280;57706;56.326;43.882;2023-01-29T11:23:31;100591.91;;;-3.62;66.78
70302;BME280;57706;56.326;43.882;2023-01-29T11:25:58;100565.47;;;-3.64;67.33
70302;BME280;57706;56.326;43.882;2023-01-29T11:28:41;100574.88;;;-3.83;68.50
70302;BME280;57706;56.326;43.882;2023-01-29T11:31:24;100572.75;;;-3.54;67.29
70302;BME280;57706;56.326;43.882;2023-01-29T11:34:20;100572.06;;;-3.58;67.36
70302;BME280;57706;56.326;43.882;2023-01-29T11:36:56;100557.34;;;-3.54;67.00
70302;BME280;57706;56.326;43.882;2023-01-29T11:39:23;100562.19;;;-3.67;67.55
70302;BME280;57706;56.326;43.882;2023-01-29T11:41:56;100556.28;;;-3.69;67.81
70302;BME280;57706;56.326;43.882;2023-01-29T11:47:25;100552.75;;;-3.88;68.81
70302;BME280;57706;56.326;43.882;2023-01-29T11:50:02;100545.34;;;-3.94;68.94
70302;BME280;57706;56.326;43.882;2023-01-29T11:52:39;100536.19;;;-3.60;67.95
70302;BME280;57706;56.326;43.882;2023-01-29T11:57:42;100537.56;;;-3.33;67.03
70302;BME280;57706;56.326;43.882;2023-01-29T12:00:21;100531.38;;;-3.48;66.70
70302;BME280;57706;56.326;43.882;2023-01-29T12:02:54;100539.53;;;-3.78;67.56
70302;BME280;57706;56.326;43.882;2023-01-29T12:05:23;100541.84;;;-3.72;67.84
70302;BME280;57706;56.326;43.882;2023-01-29T12:07:52;100528.09;;;-3.71;68.02
70302;BME280;57706;56.326;43.882;2023-01-29T12:10:39;100533.59;;;-3.60;67.43
70302;BME280;57706;56.326;43.882;2023-01-29T12:15:35;100534.50;;;-3.61;67.97
70302;BME280;57706;56.326;43.882;2023-01-29T12:18:06;100555.59;;;-3.73;67.96
70302;BME280;57706;56.326;43.882;2023-01-29T12:24:05;100547.16;;;-3.77;68.64
70302;BME280;57706;56.326;43.882;2023-01-29T12:26:37;100544.09;;;-3.85;68.90
70302;BME280;57706;56.326;43.882;2023-01-29T12:35:02;100547.50;;;-4.05;69.14
70302;BME280;57706;56.326;43.882;2023-01-29T12:37:50;100551.34;;;-3.74;68.18
70302;BME280;57706;56.326;43.882;2023-01-29T12:40:20;100534.41;;;-3.99;69.07
70302;BME280;57706;56.326;43.882;2023-01-29T12:42:54;100551.38;;;-4.16;69.64
70302;BME280;57706;56.326;43.882;2023-01-29T12:45:22;100544.13;;;-4.06;69.51
70302;BME280;57706;56.326;43.882;2023-01-29T12:47:56;100538.38;;;-4.12;69.76
70302;BME280;57706;56.326;43.882;2023-01-29T12:50:32;100525.16;;;-4.03;69.31
70302;BME280;57706;56.326;43.882;2023-01-29T12:55:46;100528.75;;;-3.87;69.23
70302;BME280;57706;56.326;43.882;2023-01-29T12:58:15;100526.59;;;-4.17;70.74
70302;BME280;57706;56.326;43.882;2023-01-29T13:00:48;100523.06;;;-4.14;69.87
70302;BME280;57706;56.326;43.882;2023-01-29T13:05:54;100521.53;;;-3.97;69.42
70302;BME280;57706;56.326;43.882;2023-01-29T13:08:36;100522.03;;;-4.10;69.86
70302;BME280;57706;56.326;43.882;2023-01-29T13:11:09;100504.59;;;-4.22;70.74
70302;BME280;57706;56.326;43.882;2023-01-29T13:13:44;100501.41;;;-4.50;72.28
70302;BME280;57706;56.326;43.882;2023-01-29T13:16:20;100515.06;;;-4.49;72.32
70302;BME280;57706;56.326;43.882;2023-01-29T13:18:53;100520.66;;;-4.39;71.47
70302;BME280;57706;56.326;43.882;2023-01-29T13:21:40;100521.53;;;-4.61;71.82
70302;BME280;57706;56.326;43.882;2023-01-29T13:24:14;100516.16;;;-4.55;72.45
70302;BME280;57706;56.326;43.882;2023-01-29T13:26:44;100522.09;;;-4.11;70.56
70302;BME280;57706;56.326;43.882;2023-01-29T13:29:31;100510.44;;;-4.19;70.74
70302;BME280;57706;56.326;43.882;2023-01-29T13:32:02;100509.13;;;-4.29;70.63
70302;BME280;57706;56.326;43.882;2023-01-29T13:34:35;100502.47;;;-4.99;72.49
70302;BME280;57706;56.326;43.882;2023-01-29T13:37:15;100502.19;;;-4.48;71.18
70302;BME280;57706;56.326;43.882;2023-01-29T13:39:50;100497.94;;;-4.28;70.77
70302;BME280;57706;56.326;43.882;2023-01-29T13:45:02;100496.50;;;-4.13;70.06
70302;BME280;57706;56.326;43.882;2023-01-29T13:47:35;100510.44;;;-4.19;69.50
70302;BME280;57706;56.326;43.882;2023-01-29T13:52:39;100500.13;;;-4.60;71.29
70302;BME280;57706;56.326;43.882;2023-01-29T14:02:46;100505.69;;;-4.50;70.59
70302;BME280;57706;56.326;43.882;2023-01-29T14:08:01;100497.81;;;-4.66;71.87
70302;BME280;57706;56.326;43.882;2023-01-29T14:10:30;100508.09;;;-4.25;70.12
70302;BME280;57706;56.326;43.882;2023-01-29T14:23:26;100503.13;;;-4.50;71.03
70302;BME280;57706;56.326;43.882;2023-01-29T14:26:23;100496.25;;;-4.48;70.43
70302;BME280;57706;56.326;43.882;2023-01-29T14:29:25;100496.53;;;-4.56;71.51
70302;BME280;57706;56.326;43.882;2023-01-29T14:32:17;100495.78;;;-4.37;69.98
70302;BME280;57706;56.326;43.882;2023-01-29T14:34:50;100487.81;;;-4.52;70.16
70302;BME280;57706;56.326;43.882;2023-01-29T14:39:54;100487.16;;;-4.57;70.31
70302;BME280;57706;56.326;43.882;2023-01-29T14:45:30;100483.69;;;-4.77;71.31
70302;BME280;57706;56.326;43.882;2023-01-29T14:48:02;100475.63;;;-4.67;70.94
70302;BME280;57706;56.326;43.882;2023-01-29T14:55:56;100475.72;;;-4.71;70.37
70302;BME280;57706;56.326;43.882;2023-01-29T15:00:55;100470.88;;;-4.56;69.87
70302;BME280;57706;56.326;43.882;2023-01-29T15:03:52;100476.97;;;-5.02;71.01
70302;BME280;57706;56.326;43.882;2023-01-29T15:06:44;100470.97;;;-4.80;71.14
70302;BME280;57706;56.326;43.882;2023-01-29T15:09:41;100467.97;;;-4.69;70.65
70302;BME280;57706;56.326;43.882;2023-01-29T15:15:02;100479.09;;;-4.91;71.08
70302;BME280;57706;56.326;43.882;2023-01-29T15:17:39;100470.84;;;-4.99;71.42
70302;BME280;57706;56.326;43.882;2023-01-29T15:20:32;100457.28;;;-5.23;72.22
70302;BME280;57706;56.326;43.882;2023-01-29T15:23:00;100455.31;;;-5.17;72.54
70302;BME280;57706;56.326;43.882;2023-01-29T15:25:46;100464.06;;;-5.22;71.86
70302;BME280;57706;56.326;43.882;2023-01-29T15:28:12;100467.53;;;-5.23;72.19
70302;BME280;57706;56.326;43.882;2023-01-29T15:30:38;100466.75;;;-5.03;71.75